Time;durP1;ratioP1;P1;durP2;ratioP2;P2;SDS_P1;SDS_P2;PMS_P1;PMS_P2;Temp;Humidity;BMP_temperature;BMP_pressure;BME280_temperature;BME280_humidity;BME280_pressure;Samples;Min_cycle;Max_cycle;Signal;HPM_P1;HPM_P2
2022/05/31 00:00:32;;;;;;;1.60;1.50;;;19.60;46.80;;;;;;4979115;28;20202;-71
2022/05/31 00:02:59;;;;;;;1.67;1.58;;;19.60;47.00;;;;;;4975292;28;20198;-69
2022/05/31 00:05:27;;;;;;;1.70;1.60;;;19.60;46.90;;;;;;4973710;28;20198;-71
2022/05/31 00:07:54;;;;;;;1.65;1.55;;;19.60;47.00;;;;;;4973429;28;20304;-71
2022/05/31 00:10:21;;;;;;;1.70;1.60;;;19.60;47.20;;;;;;4973555;28;20206;-71
2022/05/31 00:12:48;;;;;;;1.77;1.67;;;19.60;47.10;;;;;;4973417;28;20209;-71
2022/05/31 00:15:17;;;;;;;1.48;1.38;;;19.60;47.00;;;;;;4973591;28;20209;-72
2022/05/31 00:17:45;;;;;;;1.52;1.42;;;19.60;47.20;;;;;;4973595;28;20226;-70
2022/05/31 00:20:13;;;;;;;1.60;1.50;;;19.60;47.20;;;;;;4973470;28;20256;-70
2022/05/31 00:22:41;;;;;;;1.70;1.60;;;19.50;47.20;;;;;;4973543;28;20210;-70
2022/05/31 00:25:09;;;;;;;1.85;1.70;;;19.60;47.20;;;;;;4973552;28;20210;-70
2022/05/31 00:27:36;;;;;;;1.70;1.60;;;19.50;47.10;;;;;;4973319;28;20224;-70
2022/05/31 00:30:04;;;;;;;1.73;1.63;;;19.50;47.00;;;;;;4974717;28;20197;-71
2022/05/31 00:32:34;;;;;;;1.60;1.50;;;19.50;47.00;;;;;;4973401;28;20202;-71
2022/05/31 00:35:04;;;;;;;1.60;1.50;;;19.50;47.00;;;;;;4973723;28;20206;-70
2022/05/31 00:37:33;;;;;;;1.70;1.60;;;19.50;47.10;;;;;;4973289;28;20269;-71
2022/05/31 00:40:00;;;;;;;1.58;1.48;;;19.50;47.10;;;;;;4973192;28;20240;-71
2022/05/31 00:42:27;;;;;;;1.80;1.70;;;19.50;47.20;;;;;;4973159;28;20206;-71
2022/05/31 00:44:54;;;;;;;1.65;1.55;;;19.50;47.20;;;;;;4973474;28;20688;-71
2022/05/31 00:47:25;;;;;;;1.25;1.25;;;19.50;47.30;;;;;;4973096;28;20217;-70
2022/05/31 00:49:58;;;;;;;1.60;1.50;;;19.50;47.30;;;;;;4973491;28;20666;-71
2022/05/31 00:52:26;;;;;;;1.70;1.60;;;19.50;47.40;;;;;;4973451;28;20282;-71
2022/05/31 00:54:55;;;;;;;1.58;1.48;;;19.40;47.40;;;;;;4973309;28;20293;-71
2022/05/31 00:57:22;;;;;;;1.33;1.30;;;19.50;47.40;;;;;;4973157;28;20218;-71
2022/05/31 00:59:51;;;;;;;1.65;1.55;;;19.40;47.40;;;;;;4973011;28;20686;-70
2022/05/31 01:02:18;;;;;;;1.60;1.50;;;19.40;47.50;;;;;;4973128;28;20651;-71
2022/05/31 01:04:48;;;;;;;1.60;1.50;;;19.40;47.50;;;;;;4973558;28;20204;-71
2022/05/31 01:07:17;;;;;;;1.88;1.55;;;19.40;47.50;;;;;;4977124;28;20226;-71
2022/05/31 01:09:44;;;;;;;1.60;1.50;;;19.40;47.30;;;;;;4976532;28;20213;-70
2022/05/31 01:12:37;;;;;;;1.80;1.70;;;19.40;47.50;;;;;;4976466;28;20198;-71
2022/05/31 01:15:23;;;;;;;1.70;1.60;;;19.30;47.40;;;;;;4978354;28;20671;-70
2022/05/31 01:18:08;;;;;;;1.70;1.60;;;19.30;47.40;;;;;;4978209;28;20261;-70
2022/05/31 01:20:56;;;;;;;1.30;1.30;;;19.30;47.50;;;;;;4978107;28;20702;-71
2022/05/31 01:23:36;;;;;;;1.60;1.50;;;19.30;47.40;;;;;;4976295;28;20285;-71
2022/05/31 01:26:07;;;;;;;1.60;1.50;;;19.30;47.50;;;;;;4976400;28;20222;-71
2022/05/31 01:28:41;;;;;;;1.50;1.40;;;19.30;47.40;;;;;;4976236;28;20302;-71
2022/05/31 01:31:10;;;;;;;1.63;1.52;;;19.30;47.50;;;;;;4976282;28;20285;-71
2022/05/31 01:33:41;;;;;;;1.73;1.63;;;19.30;47.40;;;;;;4976214;28;20655;-70
2022/05/31 01:36:12;;;;;;;2.03;1.58;;;19.30;47.50;;;;;;4976755;28;20218;-71
2022/05/31 01:42:28;;;;;;;1.70;1.60;;;19.20;47.60;;;;;;4978065;28;20230;-71
2022/05/31 01:45:08;;;;;;;1.70;1.60;;;19.20;47.60;;;;;;4976387;28;20753;-71
2022/05/31 01:47:36;;;;;;;1.70;1.60;;;19.20;47.70;;;;;;4975896;28;20218;-70
2022/05/31 01:50:04;;;;;;;1.70;1.60;;;19.20;47.70;;;;;;4975868;28;20202;-71
2022/05/31 01:52:32;;;;;;;2.00;1.60;;;19.20;47.70;;;;;;4975590;28;20214;-72
2022/05/31 01:55:01;;;;;;;1.77;1.67;;;19.20;47.70;;;;;;4975795;28;20607;-71
2022/05/31 01:57:28;;;;;;;1.50;1.40;;;19.10;47.60;;;;;;4975704;28;20745;-71
2022/05/31 02:00:01;;;;;;;1.80;1.70;;;19.10;47.50;;;;;;4975551;28;20198;-71
2022/05/31 02:02:28;;;;;;;1.50;1.40;;;19.10;47.60;;;;;;4975697;28;20667;-71
2022/05/31 02:04:55;;;;;;;1.67;1.58;;;19.10;47.50;;;;;;4975734;28;20552;-71
2022/05/31 02:07:24;;;;;;;1.77;1.67;;;19.10;47.70;;;;;;4975454;28;20268;-71
2022/05/31 02:09:54;;;;;;;1.70;1.60;;;19.10;47.80;;;;;;4975317;28;20229;-71
2022/05/31 02:12:27;;;;;;;1.70;1.60;;;19.10;47.80;;;;;;4975346;28;20201;-72
2022/05/31 02:15:26;;;;;;;1.60;1.50;;;19.10;47.90;;;;;;4964636;28;20206;-71
2022/05/31 02:18:19;;;;;;;1.65;1.55;;;19.10;47.90;;;;;;4967584;28;20206;-71
2022/05/31 02:21:06;;;;;;;1.70;1.60;;;19.10;47.70;;;;;;4965526;28;20294;-71
2022/05/31 02:23:33;;;;;;;1.48;1.40;;;19.10;47.70;;;;;;4975080;28;20205;-71
2022/05/31 02:26:02;;;;;;;1.70;1.52;;;19.00;47.60;;;;;;4975038;28;20214;-71
2022/05/31 02:28:30;;;;;;;1.50;1.40;;;19.00;47.60;;;;;;4974913;28;20213;-71
2022/05/31 02:30:58;;;;;;;1.77;1.67;;;19.00;47.90;;;;;;4974894;28;20233;-71
2022/05/31 02:33:25;;;;;;;1.60;1.50;;;19.00;47.80;;;;;;4976115;28;20191;-71
2022/05/31 02:35:52;;;;;;;1.50;1.40;;;19.00;47.70;;;;;;4974876;28;20277;-71
2022/05/31 02:38:20;;;;;;;1.63;1.52;;;19.00;47.70;;;;;;4974803;28;20198;-71
2022/05/31 02:40:48;;;;;;;1.52;1.42;;;19.00;47.90;;;;;;4974700;28;20701;-71
2022/05/31 02:43:23;;;;;;;1.70;1.60;;;19.00;47.90;;;;;;4974700;28;20663;-71
2022/05/31 02:45:51;;;;;;;1.50;1.40;;;19.00;47.90;;;;;;4975649;28;20221;-71
2022/05/31 02:48:20;;;;;;;1.63;1.52;;;19.00;47.90;;;;;;4974709;28;20271;-71
2022/05/31 02:50:47;;;;;;;1.55;1.45;;;18.90;47.80;;;;;;4974913;28;20202;-71
2022/05/31 02:53:14;;;;;;;1.60;1.50;;;19.00;47.90;;;;;;4974731;28;20695;-71
2022/05/31 02:55:42;;;;;;;1.40;1.40;;;18.90;48.50;;;;;;4974660;28;20205;-71
2022/05/31 02:58:29;;;;;;;1.85;1.65;;;18.90;48.00;;;;;;4975683;28;20669;-71
2022/05/31 03:01:20;;;;;;;1.40;1.30;;;18.90;47.90;;;;;;4975841;28;20194;-71
2022/05/31 03:04:23;;;;;;;1.73;1.63;;;18.90;47.90;;;;;;4954309;29;20282;-71
2022/05/31 03:07:13;;;;;;;1.80;1.70;;;18.90;47.90;;;;;;4965788;28;20225;-71
2022/05/31 03:10:01;;;;;;;1.63;1.52;;;18.90;47.80;;;;;;4974571;28;20214;-71
2022/05/31 03:12:28;;;;;;;2.00;1.90;;;18.90;47.90;;;;;;4975253;28;20202;-71
2022/05/31 03:14:57;;;;;;;1.55;1.45;;;18.90;47.80;;;;;;4974513;28;20662;-71
2022/05/31 03:17:27;;;;;;;1.60;1.50;;;18.90;47.70;;;;;;4974068;28;20309;-71
2022/05/31 03:19:55;;;;;;;1.70;1.50;;;18.90;47.90;;;;;;4974194;28;20198;-71
2022/05/31 03:22:26;;;;;;;1.70;1.60;;;18.90;47.80;;;;;;4974037;28;20202;-71
2022/05/31 03:24:54;;;;;;;2.28;1.73;;;18.90;47.90;;;;;;4973980;28;20296;-71
2022/05/31 03:27:22;;;;;;;1.60;1.50;;;18.90;48.00;;;;;;4973873;28;20226;-71
2022/05/31 03:29:50;;;;;;;1.77;1.67;;;18.90;48.00;;;;;;4974171;28;20678;-71
2022/05/31 03:32:18;;;;;;;1.70;1.60;;;18.90;47.90;;;;;;4973943;28;20194;-71
2022/05/31 03:34:46;;;;;;;1.75;1.65;;;18.90;47.90;;;;;;4973854;28;20667;-70
2022/05/31 03:37:13;;;;;;;1.70;1.60;;;18.90;47.80;;;;;;4973879;28;20222;-72
2022/05/31 03:39:41;;;;;;;1.60;1.50;;;19.00;47.80;;;;;;4973751;28;20202;-71
2022/05/31 03:42:08;;;;;;;1.80;1.70;;;19.00;47.70;;;;;;4973769;28;20198;-71
2022/05/31 03:44:35;;;;;;;1.45;1.35;;;19.00;47.60;;;;;;4973768;28;20210;-71
2022/05/31 03:47:22;;;;;;;1.77;1.65;;;19.00;47.70;;;;;;4973718;28;20220;-71
2022/05/31 03:50:24;;;;;;;1.73;1.63;;;19.00;47.70;;;;;;4975092;28;20213;-71
2022/05/31 03:52:53;;;;;;;2.25;1.65;;;19.00;47.70;;;;;;4973892;28;20297;-71
2022/05/31 03:55:22;;;;;;;1.80;1.70;;;19.10;47.70;;;;;;4973816;28;20195;-71
2022/05/31 03:57:51;;;;;;;1.65;1.55;;;19.00;47.60;;;;;;4973658;28;20211;-71
2022/05/31 04:00:47;;;;;;;1.70;1.60;;;19.00;47.40;;;;;;4974402;28;20613;-71
2022/05/31 04:03:24;;;;;;;1.67;1.58;;;19.10;47.50;;;;;;4973514;28;20196;-71
2022/05/31 04:05:52;;;;;;;1.60;1.50;;;19.10;47.50;;;;;;4973571;28;20217;-71
2022/05/31 04:08:21;;;;;;;1.77;1.67;;;19.10;47.40;;;;;;4973440;28;20226;-71
2022/05/31 04:10:49;;;;;;;1.55;1.48;;;19.10;47.40;;;;;;4973587;28;20198;-71
2022/05/31 04:13:17;;;;;;;1.77;1.60;;;19.10;47.40;;;;;;4974544;28;20253;-71
2022/05/31 04:16:04;;;;;;;1.70;1.60;;;19.10;47.30;;;;;;4974769;28;20316;-71
2022/05/31 04:18:34;;;;;;;1.60;1.50;;;19.10;47.30;;;;;;4973864;28;20288;-71
2022/05/31 04:21:02;;;;;;;1.70;1.60;;;19.10;47.30;;;;;;4973485;28;20205;-71
2022/05/31 04:26:34;;;;;;;1.70;1.60;;;19.10;47.00;;;;;;4988165;28;20217;-70
2022/05/31 04:29:19;;;;;;;1.83;1.70;;;19.10;47.20;;;;;;4993494;28;20257;-71
2022/05/31 04:32:06;;;;;;;1.73;1.63;;;19.10;47.20;;;;;;4992855;28;20225;-70
2022/05/31 04:34:58;;;;;;;1.80;1.70;;;19.10;47.00;;;;;;4974943;28;20616;-71
2022/05/31 04:37:26;;;;;;;1.92;1.80;;;19.10;46.90;;;;;;4973346;28;20743;-70
2022/05/31 04:40:11;;;;;;;2.10;2.00;;;19.20;45.80;;;;;;5132626;23;20090;-69
2022/05/31 04:42:58;;;;;;;2.95;1.80;;;19.20;45.80;;;;;;4958346;29;20213;-68
2022/05/31 04:45:48;;;;;;;2.17;1.98;;;19.40;46.40;;;;;;5278806;23;20244;-68
2022/05/31 04:48:33;;;;;;;3.35;2.00;;;19.50;46.00;;;;;;4976903;28;20249;-67
2022/05/31 04:51:01;;;;;;;2.20;2.00;;;19.80;45.00;;;;;;4976613;28;20198;-68
2022/05/31 04:53:36;;;;;;;2.60;1.73;;;20.00;44.20;;;;;;4977056;28;20200;-68
2022/05/31 04:56:30;;;;;;;2.17;1.98;;;20.20;44.00;;;;;;4969767;28;20718;-68
2022/05/31 04:59:03;;;;;;;2.35;2.15;;;20.40;43.70;;;;;;4976775;28;20198;-68
2022/05/31 05:01:30;;;;;;;1.90;1.80;;;20.60;43.30;;;;;;4976520;28;20628;-68
2022/05/31 05:04:01;;;;;;;2.08;1.90;;;20.80;43.20;;;;;;4976740;28;20271;-68
2022/05/31 05:06:31;;;;;;;2.17;2.08;;;21.00;42.70;;;;;;4976641;28;20407;-68
2022/05/31 05:08:58;;;;;;;2.25;2.05;;;21.10;42.60;;;;;;5074252;23;20236;-68
2022/05/31 05:11:26;;;;;;;2.63;1.83;;;21.20;42.30;;;;;;4976528;28;20202;-69
2022/05/31 05:13:59;;;;;;;3.63;2.08;;;21.40;42.30;;;;;;4992356;23;20268;-60
2022/05/31 05:16:45;;;;;;;2.20;2.00;;;21.50;42.30;;;;;;4977613;28;20181;-60
2022/05/31 05:19:14;;;;;;;2.20;2.00;;;21.60;42.10;;;;;;4976130;28;20198;-60
2022/05/31 05:21:45;;;;;;;1.98;1.88;;;21.80;41.90;;;;;;4975983;28;20198;-60
2022/05/31 05:24:37;;;;;;;4.78;2.00;;;21.90;41.80;;;;;;4969909;28;20218;-60
2022/05/31 05:27:19;;;;;;;2.00;1.90;;;22.00;41.50;;;;;;4958679;28;20187;-60
2022/05/31 05:32:37;;;;;;;2.25;1.85;;;22.20;41.20;;;;;;4956806;28;20198;-60
2022/05/31 05:35:25;;;;;;;2.65;2.20;;;22.30;41.10;;;;;;4950618;28;20632;-60
2022/05/31 05:38:08;;;;;;;5.13;3.25;;;22.40;40.90;;;;;;4956509;28;20206;-60
2022/05/31 05:41:00;;;;;;;5.03;3.28;;;22.50;40.60;;;;;;4958032;29;20653;-60
2022/05/31 05:43:47;;;;;;;3.53;2.80;;;22.60;40.50;;;;;;4956583;28;20618;-60
2022/05/31 05:46:20;;;;;;;3.55;2.72;;;22.70;40.30;;;;;;5188180;23;20241;-70
2022/05/31 05:48:47;;;;;;;2.47;2.28;;;22.70;40.20;;;;;;4975770;28;20206;-69
2022/05/31 05:51:15;;;;;;;3.55;2.50;;;22.70;40.10;;;;;;4975305;28;20198;-70
2022/05/31 05:54:04;;;;;;;2.35;2.15;;;22.80;40.30;;;;;;4976061;28;20339;-70
2022/05/31 05:56:53;;;;;;;2.33;2.13;;;22.90;40.10;;;;;;4962110;28;20589;-71
2022/05/31 05:59:41;;;;;;;2.55;2.35;;;22.90;40.10;;;;;;4947159;28;20539;-70
2022/05/31 06:02:29;;;;;;;4.05;2.90;;;22.90;40.10;;;;;;4957794;29;20730;-71
2022/05/31 06:05:18;;;;;;;3.88;2.42;;;22.90;40.10;;;;;;4956433;28;20209;-70
2022/05/31 06:07:47;;;;;;;3.60;2.90;;;22.80;40.10;;;;;;4956223;28;20219;-70
2022/05/31 06:10:17;;;;;;;2.55;2.10;;;22.90;40.10;;;;;;4956385;28;20218;-70
2022/05/31 06:12:45;;;;;;;2.30;2.08;;;22.90;40.10;;;;;;4956083;28;20574;-70
2022/05/31 06:15:16;;;;;;;2.50;2.30;;;22.80;40.10;;;;;;4956409;28;20575;-71
2022/05/31 06:17:44;;;;;;;2.72;2.53;;;22.80;40.10;;;;;;4956066;28;20219;-70
2022/05/31 06:20:12;;;;;;;2.35;2.15;;;22.80;40.30;;;;;;4956687;28;20294;-70
2022/05/31 06:22:41;;;;;;;2.38;2.10;;;22.70;40.40;;;;;;4955960;28;20749;-70
2022/05/31 06:25:20;;;;;;;2.30;2.10;;;22.60;40.50;;;;;;4956042;28;20201;-70
2022/05/31 06:27:57;;;;;;;3.13;2.20;;;22.60;40.70;;;;;;4957270;28;20187;-70
2022/05/31 06:30:26;;;;;;;2.20;2.10;;;22.60;40.80;;;;;;4955607;28;20222;-70
2022/05/31 06:32:54;;;;;;;2.55;2.20;;;22.50;40.70;;;;;;4955675;28;20762;-70
2022/05/31 06:35:21;;;;;;;2.10;2.00;;;22.60;40.80;;;;;;4955853;28;20256;-70
2022/05/31 06:38:16;;;;;;;2.30;2.10;;;22.60;40.80;;;;;;4955615;29;20234;-70
2022/05/31 06:40:45;;;;;;;2.47;2.13;;;22.70;40.70;;;;;;4955514;28;20572;-70
2022/05/31 06:43:33;;;;;;;2.58;2.28;;;22.80;40.50;;;;;;4956385;29;20214;-70
2022/05/31 06:46:19;;;;;;;2.28;2.08;;;22.90;40.30;;;;;;4956327;28;20725;-70
2022/05/31 06:49:16;;;;;;;2.63;2.42;;;22.90;40.30;;;;;;4938142;28;20307;-70
2022/05/31 06:58:20;;;;;;;2.33;2.13;;;22.90;40.50;;;;;;4955115;28;20702;-70
2022/05/31 07:00:53;;;;;;;2.05;1.92;;;22.80;40.50;;;;;;4956124;28;20198;-70
2022/05/31 07:03:21;;;;;;;2.10;1.90;;;22.80;40.50;;;;;;4954756;28;20273;-70
2022/05/31 07:05:48;;;;;;;2.20;2.00;;;22.90;40.50;;;;;;4955003;28;20218;-70
2022/05/31 07:08:17;;;;;;;2.90;1.98;;;23.00;40.30;;;;;;4956524;28;20230;-70
2022/05/31 07:11:07;;;;;;;2.47;1.98;;;23.20;40.10;;;;;;4956006;28;20310;-70
2022/05/31 07:13:54;;;;;;;2.20;2.00;;;23.30;39.80;;;;;;4956257;29;20186;-71
2022/05/31 07:16:21;;;;;;;2.58;2.35;;;23.50;39.50;;;;;;4956533;28;20273;-70
2022/05/31 07:19:06;;;;;;;1.95;1.85;;;23.70;39.20;;;;;;4956507;29;20190;-70
2022/05/31 07:21:41;;;;;;;3.05;2.05;;;23.90;38.80;;;;;;4954787;28;20233;-70
2022/05/31 07:24:08;;;;;;;1.73;1.63;;;24.00;38.50;;;;;;4954622;28;20203;-70
2022/05/31 07:26:38;;;;;;;2.75;1.98;;;24.20;38.30;;;;;;4954604;28;20225;-71
2022/05/31 07:29:09;;;;;;;2.00;1.90;;;24.30;37.90;;;;;;4954607;28;20198;-70
2022/05/31 07:31:37;;;;;;;2.30;2.10;;;24.40;38.40;;;;;;4955715;28;20195;-71
2022/05/31 07:34:10;;;;;;;2.10;1.83;;;24.50;37.80;;;;;;4954613;28;20285;-71
2022/05/31 07:36:38;;;;;;;2.80;1.85;;;24.40;37.90;;;;;;4954526;28;20226;-70
2022/05/31 07:39:10;;;;;;;2.13;1.90;;;24.40;37.80;;;;;;4954612;28;20202;-70
2022/05/31 07:41:38;;;;;;;2.17;1.92;;;24.40;37.90;;;;;;4954697;28;20202;-70
2022/05/31 07:44:06;;;;;;;2.22;2.03;;;24.40;37.90;;;;;;4954577;28;20203;-71
2022/05/31 07:46:34;;;;;;;1.95;1.85;;;24.40;37.90;;;;;;4954413;28;20317;-71
2022/05/31 07:49:02;;;;;;;2.10;1.85;;;24.50;37.80;;;;;;4954556;28;20225;-70
2022/05/31 07:51:48;;;;;;;1.95;1.83;;;24.50;37.60;;;;;;4955621;29;20265;-70
2022/05/31 07:54:34;;;;;;;1.73;1.63;;;24.50;37.60;;;;;;4956218;29;20250;-70
2022/05/31 08:00:24;;;;;;;2.17;1.90;;;24.60;37.60;;;;;;4896520;29;20250;-70
2022/05/31 08:02:56;;;;;;;2.15;1.90;;;24.70;37.50;;;;;;4881217;29;20249;-70
2022/05/31 08:05:24;;;;;;;2.10;1.90;;;24.70;37.40;;;;;;4917057;29;20289;-70
2022/05/31 08:07:51;;;;;;;1.90;1.80;;;24.70;37.30;;;;;;4955393;28;20563;-70
2022/05/31 08:10:20;;;;;;;2.17;1.70;;;24.80;37.20;;;;;;4954928;28;20552;-70
2022/05/31 08:12:47;;;;;;;1.70;1.60;;;24.90;37.10;;;;;;4955473;28;20233;-70
2022/05/31 08:15:14;;;;;;;2.00;1.80;;;25.00;37.00;;;;;;4955171;28;20675;-70
2022/05/31 08:17:42;;;;;;;2.20;2.00;;;25.00;36.90;;;;;;4959493;28;20217;-70
2022/05/31 08:20:12;;;;;;;2.42;2.00;;;25.10;36.70;;;;;;4958158;28;20195;-70
2022/05/31 08:22:39;;;;;;;1.90;1.80;;;25.20;36.70;;;;;;4958106;28;20685;-70
2022/05/31 08:25:08;;;;;;;2.13;1.92;;;25.20;36.60;;;;;;4959598;28;20202;-70
2022/05/31 08:27:34;;;;;;;2.00;1.77;;;25.30;36.50;;;;;;4958051;28;20273;-70
2022/05/31 08:30:03;;;;;;;1.98;1.88;;;25.30;36.50;;;;;;4957981;28;20223;-70
2022/05/31 08:32:30;;;;;;;1.98;1.75;;;25.30;36.50;;;;;;4957857;28;20671;-71
2022/05/31 08:34:57;;;;;;;2.55;1.80;;;25.40;36.40;;;;;;4958009;28;20203;-70
2022/05/31 08:37:26;;;;;;;1.77;1.67;;;25.40;36.30;;;;;;4959388;28;20602;-71
2022/05/31 08:39:53;;;;;;;1.70;1.60;;;25.50;36.30;;;;;;4958262;28;20266;-70
2022/05/31 08:42:22;;;;;;;1.50;1.40;;;25.50;36.30;;;;;;4957754;28;20203;-70
2022/05/31 08:44:53;;;;;;;2.10;1.98;;;25.50;36.30;;;;;;4958012;28;20199;-70
2022/05/31 08:47:23;;;;;;;1.90;1.80;;;25.60;36.20;;;;;;4968661;28;20254;-71
2022/05/31 08:52:58;;;;;;;2.00;1.80;;;25.60;36.00;;;;;;4970334;28;20703;-70
2022/05/31 08:58:16;;;;;;;2.55;1.70;;;25.70;35.90;;;;;;4957836;28;20202;-70
2022/05/31 09:00:43;;;;;;;1.70;1.60;;;25.70;35.90;;;;;;4958748;28;20191;-71
2022/05/31 09:03:14;;;;;;;1.80;1.70;;;25.60;36.60;;;;;;4957453;28;20660;-70
2022/05/31 09:05:44;;;;;;;1.73;1.63;;;25.50;36.10;;;;;;4957380;28;20289;-70
2022/05/31 09:08:17;;;;;;;1.80;1.70;;;25.40;36.80;;;;;;4958956;28;20207;-70
2022/05/31 09:10:47;;;;;;;2.00;1.80;;;25.40;36.50;;;;;;4958963;28;20699;-70
2022/05/31 09:13:16;;;;;;;1.92;1.80;;;25.30;36.60;;;;;;4958560;28;20722;-71
2022/05/31 09:15:45;;;;;;;1.75;1.65;;;25.30;36.60;;;;;;4958362;28;20195;-70
2022/05/31 09:18:16;;;;;;;1.75;1.65;;;25.40;36.60;;;;;;4957108;28;20257;-70
2022/05/31 09:20:46;;;;;;;1.67;1.58;;;25.40;36.60;;;;;;4957351;28;20203;-70
2022/05/31 09:23:18;;;;;;;1.75;1.65;;;25.30;36.50;;;;;;4957313;28;20210;-70
2022/05/31 09:25:45;;;;;;;1.70;1.60;;;25.30;36.60;;;;;;4956865;28;20209;-70
2022/05/31 09:28:19;;;;;;;1.80;1.70;;;25.30;36.60;;;;;;4957791;28;20210;-71
2022/05/31 09:30:47;;;;;;;1.73;1.63;;;25.30;36.60;;;;;;4956988;28;20321;-70
2022/05/31 09:33:18;;;;;;;1.67;1.58;;;25.30;36.60;;;;;;4958493;28;20191;-70
2022/05/31 09:36:09;;;;;;;1.80;1.70;;;25.30;37.30;;;;;;4957008;28;20227;-70
2022/05/31 09:39:16;;;;;;;1.77;1.63;;;25.40;36.60;;;;;;4958682;28;20187;-70
2022/05/31 09:41:45;;;;;;;1.65;1.55;;;25.40;36.50;;;;;;4956737;28;20195;-70
2022/05/31 09:44:17;;;;;;;1.80;1.70;;;25.50;36.50;;;;;;4957815;28;20171;-70
2022/05/31 09:46:46;;;;;;;1.80;1.70;;;25.50;36.40;;;;;;4956580;28;20227;-70
2022/05/31 09:49:27;;;;;;;1.60;1.50;;;25.40;36.40;;;;;;4956402;28;20194;-70
2022/05/31 09:51:54;;;;;;;1.50;1.40;;;25.40;36.50;;;;;;4957772;28;20198;-70
2022/05/31 09:57:22;;;;;;;1.70;1.60;;;25.30;36.80;;;;;;4958085;28;20230;-70
2022/05/31 10:00:13;;;;;;;1.80;1.70;;;25.10;37.00;;;;;;4957850;28;20191;-70
2022/05/31 10:02:49;;;;;;;1.58;1.48;;;25.10;37.30;;;;;;4957915;28;20201;-70
2022/05/31 10:05:18;;;;;;;1.63;1.52;;;25.00;37.50;;;;;;4956352;28;20373;-70
2022/05/31 10:07:46;;;;;;;1.60;1.50;;;24.90;37.50;;;;;;4957389;28;20257;-71
2022/05/31 10:10:16;;;;;;;1.70;1.60;;;24.90;37.60;;;;;;4956265;28;20270;-71
2022/05/31 10:12:50;;;;;;;1.73;1.63;;;24.80;37.70;;;;;;4957939;28;20175;-70
2022/05/31 10:15:37;;;;;;;1.70;1.60;;;24.70;37.80;;;;;;4956284;28;20202;-71
2022/05/31 10:18:06;;;;;;;1.50;1.40;;;24.70;37.90;;;;;;4956351;28;20195;-70
2022/05/31 10:20:34;;;;;;;1.58;1.48;;;24.70;37.80;;;;;;4955987;29;20191;-70
2022/05/31 10:23:02;;;;;;;1.70;1.60;;;24.80;37.80;;;;;;4955957;28;20198;-72
2022/05/31 10:25:52;;;;;;;1.73;1.58;;;24.90;37.70;;;;;;4957211;28;20250;-71
2022/05/31 10:28:30;;;;;;;1.73;1.50;;;24.90;37.70;;;;;;4957420;28;20281;-70
2022/05/31 10:31:03;;;;;;;1.77;1.55;;;24.90;37.70;;;;;;4955739;28;20257;-71
2022/05/31 10:33:40;;;;;;;1.58;1.48;;;24.90;37.80;;;;;;4955701;28;20214;-70
2022/05/31 10:36:14;;;;;;;1.58;1.48;;;24.80;37.70;;;;;;5108284;23;20912;-70
2022/05/31 10:38:42;;;;;;;1.80;1.70;;;24.80;37.80;;;;;;4955184;28;20237;-70
2022/05/31 10:41:13;;;;;;;1.73;1.63;;;24.70;37.90;;;;;;4956763;28;20190;-70
2022/05/31 10:43:40;;;;;;;1.52;1.42;;;24.70;38.00;;;;;;4955630;28;20608;-70
2022/05/31 10:46:13;;;;;;;1.60;1.50;;;24.70;38.10;;;;;;4950155;28;20572;-70
2022/05/31 10:48:46;;;;;;;1.65;1.55;;;24.70;38.10;;;;;;4936612;29;20219;-70
2022/05/31 10:51:22;;;;;;;1.70;1.60;;;24.60;38.10;;;;;;4937531;29;20204;-70
2022/05/31 10:53:57;;;;;;;1.60;1.50;;;24.60;38.20;;;;;;4936397;29;20239;-70
2022/05/31 10:56:29;;;;;;;2.40;1.52;;;24.50;38.20;;;;;;4937426;29;20214;-70
2022/05/31 10:58:58;;;;;;;1.70;1.60;;;24.60;38.30;;;;;;4936325;29;20210;-70
2022/05/31 11:01:53;;;;;;;1.60;1.50;;;24.60;38.40;;;;;;4937343;29;20683;-70
2022/05/31 11:04:43;;;;;;;1.50;1.40;;;24.60;38.40;;;;;;4936654;29;20203;-70
2022/05/31 11:07:16;;;;;;;1.60;1.50;;;24.50;38.40;;;;;;4936423;29;20219;-70
2022/05/31 11:12:44;;;;;;;1.80;1.70;;;24.40;38.60;;;;;;4937357;29;20214;-70
2022/05/31 11:15:16;;;;;;;1.48;1.40;;;24.40;38.70;;;;;;4949194;28;20183;-71
2022/05/31 11:18:05;;;;;;;1.60;1.50;;;24.40;38.70;;;;;;4945657;28;20210;-69
2022/05/31 11:20:37;;;;;;;1.65;1.52;;;24.40;38.70;;;;;;4936477;29;20199;-70
2022/05/31 11:23:11;;;;;;;1.40;1.30;;;24.40;38.70;;;;;;4937244;29;20266;-70
2022/05/31 11:25:51;;;;;;;1.50;1.40;;;24.40;38.80;;;;;;4936166;29;20195;-70
2022/05/31 11:28:33;;;;;;;2.70;1.30;;;24.40;38.80;;;;;;4935878;29;20215;-70
2022/05/31 11:31:08;;;;;;;1.50;1.40;;;24.40;38.80;;;;;;4937893;29;20218;-71
2022/05/31 11:33:43;;;;;;;1.60;1.50;;;24.40;38.80;;;;;;4936342;29;20198;-71
2022/05/31 11:36:17;;;;;;;1.60;1.50;;;24.40;38.80;;;;;;4935888;29;20302;-71
2022/05/31 11:38:54;;;;;;;1.40;1.30;;;24.40;38.80;;;;;;4938354;29;20190;-70
2022/05/31 11:41:26;;;;;;;1.50;1.40;;;24.40;38.80;;;;;;4938763;29;20196;-71
2022/05/31 11:50:10;;;;;;;1.58;1.48;;;24.40;38.90;;;;;;5109950;28;20581;-61
2022/05/31 11:53:11;;;;;;;1.63;1.52;;;24.40;38.90;;;;;;5111362;28;20713;-61
2022/05/31 11:55:40;;;;;;;1.40;1.30;;;24.40;39.00;;;;;;5110027;28;20212;-62
2022/05/31 11:58:27;;;;;;;1.77;1.67;;;24.40;39.00;;;;;;5111111;28;20656;-61
2022/05/31 12:01:05;;;;;;;1.40;1.30;;;24.40;39.10;;;;;;5111161;28;20181;-61
2022/05/31 12:03:38;;;;;;;1.70;1.60;;;24.30;39.10;;;;;;5111215;28;20212;-61
2022/05/31 12:06:10;;;;;;;1.50;1.40;;;24.30;39.10;;;;;;5110945;28;20210;-62
2022/05/31 12:08:41;;;;;;;1.50;1.40;;;24.30;39.20;;;;;;5111156;28;20174;-61
2022/05/31 12:11:18;;;;;;;1.50;1.40;;;24.30;39.10;;;;;;5111184;28;20260;-62
2022/05/31 12:13:45;;;;;;;1.30;1.30;;;24.30;39.20;;;;;;5109513;28;20208;-61
2022/05/31 12:16:12;;;;;;;1.50;1.40;;;24.30;39.10;;;;;;5110720;28;20182;-61
2022/05/31 12:18:45;;;;;;;1.77;1.50;;;24.30;39.20;;;;;;5110702;28;20532;-61
2022/05/31 12:21:15;;;;;;;1.40;1.30;;;24.30;39.20;;;;;;5110616;28;20178;-61
2022/05/31 12:23:45;;;;;;;1.50;1.40;;;24.30;39.20;;;;;;5109419;28;20182;-61
2022/05/31 12:26:19;;;;;;;1.60;1.50;;;24.30;39.30;;;;;;5110797;28;20198;-61
2022/05/31 12:28:49;;;;;;;1.30;1.30;;;24.30;39.30;;;;;;5109189;28;20547;-61
2022/05/31 12:31:20;;;;;;;1.50;1.40;;;24.20;39.30;;;;;;5111006;28;20196;-61
2022/05/31 12:33:48;;;;;;;1.60;1.50;;;24.20;39.20;;;;;;5109080;28;20201;-61
2022/05/31 12:36:16;;;;;;;1.50;1.40;;;24.20;39.30;;;;;;5109036;28;20276;-61
2022/05/31 12:39:05;;;;;;;1.55;1.45;;;24.20;39.30;;;;;;5109053;28;20330;-61
2022/05/31 12:41:34;;;;;;;1.50;1.40;;;24.20;39.40;;;;;;5110563;28;20247;-61
2022/05/31 12:44:01;;;;;;;1.42;1.33;;;24.20;39.40;;;;;;5110185;28;20553;-61
2022/05/31 12:46:38;;;;;;;1.30;1.30;;;24.20;39.40;;;;;;5110074;28;20723;-61
2022/05/31 12:49:09;;;;;;;1.60;1.50;;;24.20;39.50;;;;;;5110162;28;20580;-61
2022/05/31 12:51:37;;;;;;;1.50;1.40;;;24.20;39.50;;;;;;5108809;28;20190;-61
2022/05/31 12:54:13;;;;;;;1.33;1.33;;;24.20;39.50;;;;;;5108670;28;20203;-61
2022/05/31 12:57:02;;;;;;;1.20;1.20;;;24.20;39.50;;;;;;5105134;28;20213;-61
2022/05/31 12:59:47;;;;;;;1.60;1.50;;;24.20;39.50;;;;;;5096396;28;20610;-61
2022/05/31 13:02:42;;;;;;;1.38;1.33;;;24.20;39.50;;;;;;5096256;28;20186;-61
2022/05/31 13:05:31;;;;;;;1.48;1.38;;;24.20;39.50;;;;;;5096153;28;20578;-61
2022/05/31 13:08:11;;;;;;;1.60;1.50;;;24.20;39.50;;;;;;5094911;28;20194;-61
2022/05/31 13:19:34;;;;;;;1.50;1.40;;;24.20;39.60;;;;;;5094904;28;20197;-61
2022/05/31 13:21:56;;;;;;;1.50;1.40;;;24.20;39.80;;;;;;5094550;28;20232;-61
2022/05/31 13:24:23;;;;;;;1.48;1.38;;;24.20;39.80;;;;;;5094446;28;20225;-60
2022/05/31 13:26:51;;;;;;;1.60;1.50;;;24.10;39.80;;;;;;5094420;28;20246;-61
2022/05/31 13:29:20;;;;;;;1.50;1.40;;;24.10;39.90;;;;;;5094473;28;20201;-61
2022/05/31 13:31:50;;;;;;;1.30;1.30;;;24.10;39.90;;;;;;5094424;28;20202;-61
2022/05/31 13:34:26;;;;;;;1.20;1.20;;;24.10;40.00;;;;;;5095583;28;20205;-61
2022/05/31 13:36:53;;;;;;;1.40;1.30;;;24.10;40.00;;;;;;5095609;28;20177;-61
2022/05/31 13:39:21;;;;;;;1.60;1.50;;;24.10;40.00;;;;;;5095550;28;20198;-61
2022/05/31 13:41:49;;;;;;;1.40;1.40;;;24.00;39.90;;;;;;5095795;28;20194;-61
2022/05/31 13:44:20;;;;;;;1.60;1.50;;;24.00;39.90;;;;;;5095633;28;20217;-61
2022/05/31 13:46:47;;;;;;;1.60;1.50;;;24.00;39.90;;;;;;5095824;28;20209;-61
2022/05/31 13:49:16;;;;;;;1.52;1.42;;;24.00;39.90;;;;;;5096450;28;20190;-61
2022/05/31 13:51:49;;;;;;;1.40;1.30;;;24.00;40.00;;;;;;5094447;28;20205;-62
2022/05/31 13:54:17;;;;;;;1.40;1.35;;;24.00;40.10;;;;;;5094062;28;20221;-61
2022/05/31 13:56:46;;;;;;;1.50;1.40;;;24.00;40.20;;;;;;5094115;28;20190;-62
2022/05/31 13:59:13;;;;;;;1.60;1.50;;;24.00;40.20;;;;;;5095391;28;20190;-61
2022/05/31 14:01:42;;;;;;;1.50;1.40;;;23.90;40.80;;;;;;5095148;28;20255;-61
2022/05/31 14:04:11;;;;;;;1.30;1.20;;;23.90;40.30;;;;;;5093699;28;20212;-61
2022/05/31 14:06:38;;;;;;;1.58;1.48;;;23.90;40.30;;;;;;5093873;28;20271;-61